Skiathos Island, Greece

4:48 AM EEST on August 01, 2014 (GMT +0300)
Skopelos Greece (I697) Elev 259 ft | 39.13 °N, 23.72 °E | Change Station
Active Advisory: Thunderstorms

Current weather conditions updated 5 seconds ago

Scattered Clouds
Scattered Clouds
76.3 °F
Feels Like 77 °F
N
2.9
Wind Variable Wind from SW
Gusts 9.2 mph

Today is forecast to be Much Cooler than yesterday.

Today
High -- | Low -- °F
--% Chance of Precip.
Yesterday
High -- | Low -- °F
Precip. -- in
6:26 AM 8:38 PM
Waxing Crescent, 22% visible
Pressure 29.62 in
Visibility 6.2 miles
Clouds Scattered Clouds 3500 ft
Heat Index 77 °F
Dew Point 73 °F
Humidity 90%
Rainfall 0.00 in
Snow Depth Not available.
UV 0.0 out of 12
Pollen Not available.
Air Quality Not available.
Flu Activity Not available.
METAR LGBL 010050Z 27010KT 9999 SCT035 26/12 Q1003 NOSIG

More Conditions Fewer Conditions

Pressure 29.62 in
Visibility 6.2 miles
Clouds Scattered Clouds 3500 ft
Heat Index 77 °F
Dew Point 73 °F
Humidity 90%
Rainfall 0.00 in
Snow Depth Not available.
UV 0.0 out of 12
Pollen Not available.
Air Quality Not available.
Flu Activity Not available.
METAR LGBL 010050Z 27010KT 9999 SCT035 26/12 Q1003 NOSIG

More Conditions Fewer Conditions

10-Day Weather Forecast

Almanac

Astronomy

Aug. 01, 2014 Rise Set
Actual Time 6:26 AM EEST 8:38 PM EEST
Civil Twilight 5:56 AM EEST 9:07 PM EEST
Nautical Twilight 5:19 AM EEST 9:44 PM EEST
Astronomical Twilight 4:39 AM EEST 10:24 PM EEST
Moon 11:29 AM EEST 11:15 PM EEST
Length of Visible Light 15h 11m
Length of Day
14h 12m
Tomorrow will be 1m 55s shorter.
Waxing Crescent, 22% of the Moon is Illuminated
Jul 31
Waxing Crescent
Aug 3
First Quarter
Aug 10
Full
Aug 17
Last Quarter
Aug 25
New

Yesterday's Extremes

Country Highs Country Lows

Community

WunderPhotos

Upload Photos

1,739,490 photos uploaded!

Nearby

Snow Depth

Not available.

Earthquake Activity

City Distance Mag. Time & Date
No recent earthquake activity has been reported nearby.
Minimum magnitude displayed is 2.5.

Coastal Water Temperatures

Place Temperature
No Stations Reporting

Nearby Weather Stations

Station Location Temp. Heat Index Dew Point Humidity Wind Precip. Elev Updated Type
Skopelos Greece, Ελλάδα 76.3 °F 77 °F 73 °F 90% SW  at  2.9 mph 0.00 in / hr 259 ft 4:48 AM EEST Rapid Fire
ALONISSOS 77.2 °F 79 °F 72 °F 85% WNW  at  16.0 mph 0.00 in / hr 125 ft 4:45 AM EEST Normal

Show More Stations Show Fewer Stations